Flight Track Log - Related Links

Times and Time Zones

All times are in EDT time to prevent confusion due to time zone crossing. See the SWQ802 flight status page for this flight to view local times or setup timezone preferences in your user account.

Time Position Orientation Groundspeed Altitude Reporting Facility
EDT Latitude Longitude Course Direction KTS MPH feet Rate Location/Type
11:35PM 39.8667 -75.2833 243° Southwest 161 185 1,100  Level Philadelphia TRACON
11:36PM 39.8333 -75.3667 243° Southwest 234 269 3,700 2,304 Climbing Philadelphia TRACON
11:37PM 39.8000 -75.4333 237° Southwest 234 269 6,400 2,619 Climbing Philadelphia TRACON
11:38PM 39.7500 -75.3500 128° Southeast 331 381 9,200 2,619 Climbing Philadelphia TRACON
11:39PM 39.7500 -75.2333 90° East 326 375 11,900 820 Climbing Philadelphia TRACON
11:42PM 39.7753 -74.9358 84° East 375 432 12,000 673 Climbing New York Center
11:43PM 39.7886 -74.7933 83° East 388 447 14,200 2,200 Climbing New York Center
11:44PM 39.8431 -74.6642 61° Northeast 394 453 16,400 2,200 Climbing New York Center
11:45PM 39.9381 -74.5583 40° Northeast 398 458 18,600 2,650 Climbing New York Center
11:46PM 40.0386 -74.4772 32° Northeast 407 468 21,700 2,150 Climbing New York Center
11:47PM 40.1311 -74.3869 37° Northeast 412 474 22,900 650 Climbing New York Center
11:48PM 40.2278 -74.2914 37° Northeast 422 486 23,000 50 Climbing New York Center
11:49PM 40.3203 -74.1983 37° Northeast 422 486 23,000  Level New York Center
11:50PM 40.4167 -74.0994 38° Northeast 433 498 23,000  Level New York Center
11:51PM 40.5117 -73.9811 43° Northeast 441 507 23,000  Level New York Center
11:53PM 40.6631 -73.6283 60° Northeast 476 548 23,000  Level Boston Center
11:54PM 40.7244 -73.4744 62° Northeast 476 548 23,000  Level Boston Center
11:55PM 40.7886 -73.3203 61° Northeast 475 547 23,000  Level Boston Center
11:56PM 40.8861 -73.2039 42° Northeast 472 543 23,000 -550 Level Boston Center
11:57PM 40.9831 -73.0886 42° Northeast 472 543 21,900 -1,587 Descending Boston Center
11:58PM 41.0797 -72.9775 41° Northeast 466 536 19,800 -1,438 Descending Boston Center
11:59PM 41.1783 -72.8606 42° Northeast 456 525 19,000 -1,240 Descending Boston Center
12:00AM 41.2714 -72.7511 41° Northeast 447 514 17,300 -1,835 Descending Boston Center
12:01AM 41.3750 -72.6686 31° Northeast 430 495 15,300 -1,150 Descending Boston Center
12:02AM 41.4881 -72.6183 18° North 429 494 15,000 -149 Descending Boston Center
12:03AM 41.6019 -72.5683 18° North 431 496 15,000 -198 Level Boston Center
12:04AM 41.7025 -72.4819 33° Northeast 437 503 14,600 -805 Descending Boston Center
12:04AM 41.7356 -72.4458 39° Northeast 432 497 13,900 -1,846 Descending Boston Center
12:05AM 41.7775 -72.3972 41° Northeast 429 494 13,000 -1,846 Descending Boston Center
12:06AM 41.8658 -72.2986 40° Northeast 405 466 11,100 -1,070 Descending Boston Center
12:07AM 41.9572 -72.1950 40° Northeast 358 412 10,700 -797 Descending Boston Center
12:08AM 42.0261 -72.1169 40° Northeast 327 376 9,400 -1,438 Descending Boston Center
12:09AM 42.0925 -72.0414 40° Northeast 318 366 7,800 -1,537 Descending Boston Center
12:10AM 42.1594 -71.9669 39° Northeast 314 361 6,300 -1,350 Descending Boston Center
12:11AM 42.2250 -71.8958 39° Northeast 308 354 5,100 -645 Descending Boston Center
12:12AM 42.2967 -71.8181 39° Northeast 307 353 5,000  Descending Boston Center
12:13AM 42.3597 -71.7492 39° Northeast 308 354 5,100 50 Climbing Boston Center
12:14AM 42.4128 -71.6581 52° Northeast 311 358 5,100 -793 Level Boston Center
12:15AM 42.4683 -71.5572 53° Northeast 310 357 3,500 -1,488 Descending Boston Center
12:16AM 42.5058 -71.4558 63° Northeast 307 353 2,100 -750 Descending Boston Center
12:17AM 42.5333 -71.3586 69° East 283 326 2,000 -50 Descending Boston Center
12:18AM 42.5489 -71.2614 78° East 274 315 2,000 50 Level Boston Center
12:19AM 42.5514 -71.1606 88° East 270 311 2,100  Climbing Boston Center
12:20AM 42.5542 -71.0578 88° East 270 311 2,000 -50 Descending Boston Center
12:21AM 42.5275 -70.9953 120° Southeast 199 229 2,000  Level Boston Center
12:22AM 42.4883 -70.9894 174° South 149 171 2,000 50 Level Boston Center
12:23AM 42.4669 -71.0258 231° Southwest 139 160 2,100  Climbing Boston Center
12:24AM 42.4567 -71.0783 255° West 144 166 2,000 -50 Descending Boston Center
12:25AM 42.4553 -71.1258 268° West 150 173 2,000  Level Boston Center
12:27AM 42.4667 -71.2833 257° West  Level FlightAware Approximate

Login

Don't have an account? Register now (free) for customized features, flight alerts, and more!